Time;durP1;ratioP1;P1;durP2;ratioP2;P2;SDS_P1;SDS_P2;PMS_P1;PMS_P2;Temp;Humidity;BMP_temperature;BMP_pressure;BME280_temperature;BME280_humidity;BME280_pressure;Samples;Min_cycle;Max_cycle;Signal;HPM_P1;HPM_P2
2021/09/21 00:02:21;;;;;;;13.03;8.67;;;12.30;99.90;;;;;;20836863;28;20037;-74
2021/09/21 00:12:22;;;;;;;12.43;7.70;;;12.00;99.90;;;;;;20836210;28;20099;-74
2021/09/21 00:22:23;;;;;;;16.50;9.23;;;11.80;99.90;;;;;;20835492;28;20117;-74
2021/09/21 00:32:25;;;;;;;16.03;7.87;;;11.60;99.90;;;;;;20817293;28;20091;-76
2021/09/21 00:42:28;;;;;;;52.50;10.77;;;11.70;99.90;;;;;;20833921;28;20444;-74
2021/09/21 00:52:29;;;;;;;33.58;11.50;;;11.50;99.90;;;;;;20832751;28;20136;-74
2021/09/21 01:02:30;;;;;;;17.27;10.27;;;11.50;99.90;;;;;;20836359;28;20065;-74
2021/09/21 01:12:31;;;;;;;20.07;11.40;;;11.60;99.90;;;;;;20831786;28;20036;-74
2021/09/21 01:22:31;;;;;;;52.20;17.40;;;11.70;99.90;;;;;;20830796;28;20585;-73
2021/09/21 01:32:32;;;;;;;82.63;18.37;;;11.70;99.90;;;;;;20812249;28;20087;-75
2021/09/21 01:42:33;;;;;;;71.77;22.03;;;11.60;99.90;;;;;;20829226;28;20048;-74
2021/09/21 01:52:48;;;;;;;61.77;20.03;;;11.60;99.90;;;;;;20828683;28;20049;-74
2021/09/21 02:02:49;;;;;;;53.88;18.35;;;11.60;99.90;;;;;;20827169;28;20558;-74
2021/09/21 02:12:49;;;;;;;46.33;19.33;;;11.40;99.90;;;;;;20827084;28;20065;-74
2021/09/21 02:22:50;;;;;;;36.30;18.00;;;11.40;99.90;;;;;;20808694;28;20487;-75
2021/09/21 02:32:51;;;;;;;41.80;18.47;;;11.40;99.90;;;;;;20765272;28;20396;-74
2021/09/21 02:42:52;;;;;;;27.80;14.37;;;11.50;99.90;;;;;;20743607;28;20030;-75
2021/09/21 02:52:53;;;;;;;30.80;13.47;;;11.60;99.90;;;;;;20769545;28;20115;-74
2021/09/21 03:02:58;;;;;;;25.77;12.30;;;11.50;99.90;;;;;;20786928;28;20038;-74
2021/09/21 03:23:00;;;;;;;23.90;13.00;;;11.80;99.90;;;;;;20822816;28;20116;-74
2021/09/21 03:33:01;;;;;;;22.30;11.93;;;11.90;99.90;;;;;;20824909;28;20030;-75
2021/09/21 03:43:01;;;;;;;134.17;20.13;;;12.00;99.90;;;;;;20838875;28;20022;-74
2021/09/21 03:53:03;;;;;;;32.87;14.93;;;12.00;99.90;;;;;;20813592;28;20084;-74
2021/09/21 04:03:04;;;;;;;28.55;14.55;;;11.90;99.90;;;;;;20797408;28;20029;-75
2021/09/21 04:13:05;;;;;;;30.80;15.47;;;11.90;99.90;;;;;;20755025;28;20169;-74
2021/09/21 04:23:06;;;;;;;36.50;18.07;;;12.00;99.90;;;;;;20753173;28;20627;-74
2021/09/21 04:33:07;;;;;;;36.47;17.17;;;11.80;99.90;;;;;;20735659;28;20038;-74
2021/09/21 04:43:07;;;;;;;30.00;16.07;;;11.80;99.90;;;;;;20734946;28;20033;-74
2021/09/21 04:53:08;;;;;;;34.83;14.13;;;11.90;99.90;;;;;;20751418;28;20081;-74
2021/09/21 05:03:10;;;;;;;28.70;14.23;;;11.90;99.90;;;;;;20750893;28;20468;-73
2021/09/21 05:13:10;;;;;;;31.33;14.53;;;11.90;99.90;;;;;;20750085;28;20068;-74
2021/09/21 05:23:11;;;;;;;24.57;12.20;;;11.60;99.90;;;;;;20749362;28;20406;-72
2021/09/21 05:33:12;;;;;;;42.40;18.03;;;11.10;99.90;;;;;;20730230;28;20036;-76
2021/09/21 05:43:13;;;;;;;31.03;16.47;;;10.70;99.90;;;;;;20714080;28;20033;-78
2021/09/21 05:53:13;;;;;;;40.13;17.40;;;10.60;99.90;;;;;;20747831;28;20029;-74
2021/09/21 06:03:14;;;;;;;28.43;13.43;;;10.30;99.90;;;;;;20748174;28;20041;-74
2021/09/21 06:13:15;;;;;;;24.17;12.13;;;10.50;99.90;;;;;;20746326;28;20034;-74
2021/09/21 06:23:18;;;;;;;16.33;10.00;;;11.00;99.90;;;;;;20745483;28;20547;-74
2021/09/21 06:33:19;;;;;;;17.40;9.82;;;11.50;99.90;;;;;;20745407;28;20038;-74
2021/09/21 06:43:20;;;;;;;10.90;7.70;;;11.60;99.90;;;;;;20744009;28;20037;-74
2021/09/21 06:53:21;;;;;;;18.97;11.00;;;11.80;99.90;;;;;;20725553;28;20129;-74
2021/09/21 07:03:22;;;;;;;17.03;9.97;;;12.00;99.90;;;;;;20743181;28;20086;-73
2021/09/21 07:13:23;;;;;;;19.13;11.10;;;12.50;99.90;;;;;;20725289;28;20029;-74
2021/09/21 07:23:24;;;;;;;18.23;10.30;;;12.80;99.90;;;;;;20742397;28;20038;-74
2021/09/21 07:33:25;;;;;;;16.70;11.33;;;13.00;99.90;;;;;;20742059;28;20069;-73
2021/09/21 07:43:25;;;;;;;20.03;11.50;;;13.30;99.90;;;;;;20741287;28;20440;-73
2021/09/21 07:53:26;;;;;;;22.33;13.37;;;13.50;99.90;;;;;;20749396;28;20045;-73
2021/09/21 08:03:27;;;;;;;22.77;12.90;;;13.90;99.90;;;;;;20734599;28;20101;-73
2021/09/21 08:13:30;;;;;;;18.00;12.30;;;13.80;99.90;;;;;;20754875;28;20068;-72
2021/09/21 08:23:31;;;;;;;21.13;12.38;;;14.50;99.90;;;;;;20736284;28;20443;-74
2021/09/21 08:33:31;;;;;;;21.73;11.93;;;15.10;99.90;;;;;;20735374;28;20034;-73
2021/09/21 08:43:32;;;;;;;17.43;11.03;;;15.70;99.90;;;;;;20734969;28;20484;-74
2021/09/21 08:53:33;;;;;;;18.57;9.87;;;16.60;99.90;;;;;;20752121;28;20534;-75
2021/09/21 09:03:35;;;;;;;;;;;17.80;99.90;;;;;;20751578;28;20109;-75
2021/09/21 09:13:36;;;;;;;15.60;9.20;;;18.70;99.90;;;;;;20814539;28;19948;-74
2021/09/21 09:23:48;;;;;;;13.97;8.93;;;19.60;99.90;;;;;;20833385;28;20041;-74
2021/09/21 09:33:49;;;;;;;12.60;8.13;;;19.10;99.90;;;;;;20830583;28;20048;-74
2021/09/21 09:43:49;;;;;;;12.70;9.13;;;21.10;99.90;;;;;;20812576;28;20069;-73
2021/09/21 09:53:50;;;;;;;13.70;8.77;;;19.70;99.90;;;;;;20812663;28;20038;-74
2021/09/21 10:03:51;;;;;;;11.47;7.50;;;20.60;99.90;;;;;;20783877;28;20029;-74
2021/09/21 10:13:53;;;;;;;12.03;7.00;;;21.10;99.90;;;;;;20746385;28;20496;-74
2021/09/21 10:23:54;;;;;;;11.38;7.22;;;21.40;99.90;;;;;;20744460;28;20029;-75
2021/09/21 10:33:55;;;;;;;16.33;6.57;;;22.30;99.90;;;;;;20745274;28;20562;-74
2021/09/21 10:44:03;;;;;;;8.83;5.90;;;22.10;99.90;;;;;;20744119;28;20029;-74
2021/09/21 10:54:04;;;;;;;10.48;7.05;;;22.70;99.90;;;;;;20743543;28;20045;-74
2021/09/21 11:04:05;;;;;;;9.07;6.03;;;21.50;99.90;;;;;;20743116;28;20030;-74
2021/09/21 11:14:06;;;;;;;7.47;5.57;;;21.20;99.90;;;;;;20744587;28;20032;-74
2021/09/21 11:24:07;;;;;;;10.10;5.53;;;21.90;99.90;;;;;;20745119;28;20113;-74
2021/09/21 11:34:08;;;;;;;8.40;5.80;;;21.40;99.90;;;;;;20748516;28;20029;-73
2021/09/21 11:44:09;;;;;;;;;;;20.20;99.90;;;;;;20757673;28;20033;-74
2021/09/21 11:54:11;;;;;;;6.70;4.60;;;21.30;99.90;;;;;;20756693;28;19917;-75
2021/09/21 12:04:12;;;;;;;4.95;3.90;;;22.50;99.90;;;;;;20755800;28;20029;-75
2021/09/21 12:14:16;;;;;;;6.27;4.13;;;22.80;99.90;;;;;;20755665;28;20034;-75
2021/09/21 12:24:17;;;;;;;8.27;4.65;;;20.50;99.90;;;;;;20753848;28;20041;-74
2021/09/21 12:34:18;;;;;;;5.28;3.83;;;23.00;99.90;;;;;;20753401;28;20503;-75
2021/09/21 12:44:22;;;;;;;4.67;3.73;;;23.70;99.90;;;;;;20752059;28;20107;-75
2021/09/21 12:54:25;;;;;;;6.45;4.30;;;23.70;99.90;;;;;;20751574;28;20034;-74
2021/09/21 13:04:26;;;;;;;4.68;3.60;;;24.30;99.90;;;;;;20733561;28;20080;-74
2021/09/21 13:14:26;;;;;;;9.10;3.60;;;23.00;99.90;;;;;;20771966;28;20025;-75
2021/09/21 13:24:27;;;;;;;5.73;4.00;;;22.70;99.90;;;;;;20788936;28;20025;-74
2021/09/21 13:34:28;;;;;;;5.57;3.93;;;23.10;99.90;;;;;;20748793;28;20030;-74
2021/09/21 13:44:30;;;;;;;3.70;3.10;;;23.80;99.90;;;;;;20748075;28;20471;-74
2021/09/21 13:54:31;;;;;;;5.53;4.10;;;22.90;99.90;;;;;;20729222;28;20034;-75
2021/09/21 14:04:34;;;;;;;5.50;3.77;;;22.70;99.90;;;;;;20728501;28;20034;-75
2021/09/21 14:14:38;;;;;;;4.95;3.80;;;22.70;99.90;;;;;;20713096;28;20030;-74
2021/09/21 14:24:40;;;;;;;7.68;3.63;;;22.90;99.90;;;;;;20724662;28;20082;-74
2021/09/21 14:34:41;;;;;;;;;;;23.60;99.90;;;;;;20767007;28;20025;-74
2021/09/21 14:44:42;;;;;;;4.97;3.40;;;22.10;99.90;;;;;;20805596;28;19919;-73
2021/09/21 14:54:43;;;;;;;6.23;3.93;;;22.20;99.90;;;;;;20792836;28;20033;-73
2021/09/21 15:04:43;;;;;;;4.90;3.60;;;20.30;99.90;;;;;;20748868;28;20029;-74
2021/09/21 15:14:44;;;;;;;6.43;3.50;;;19.50;99.90;;;;;;20761847;28;20369;-74
2021/09/21 15:24:45;;;;;;;16.17;8.43;;;19.90;99.90;;;;;;20727849;28;20052;-74
2021/09/21 15:34:49;;;;;;;6.57;3.47;;;20.40;99.90;;;;;;20738250;28;20797;-74
2021/09/21 15:44:50;;;;;;;4.53;3.50;;;20.80;99.90;;;;;;20737377;28;20109;-74
2021/09/21 15:54:51;;;;;;;4.67;3.53;;;20.20;99.90;;;;;;20732629;28;20040;-74
2021/09/21 16:04:52;;;;;;;4.80;3.87;;;19.80;99.90;;;;;;20804391;28;20029;-74
2021/09/21 16:14:53;;;;;;;8.30;4.33;;;20.00;99.90;;;;;;20816332;28;20048;-74
2021/09/21 16:24:54;;;;;;;6.10;3.50;;;19.80;99.90;;;;;;20815140;28;20061;-75
2021/09/21 16:34:55;;;;;;;5.03;3.60;;;19.30;99.90;;;;;;20814895;28;20498;-74
2021/09/21 16:44:56;;;;;;;5.60;4.57;;;18.90;99.90;;;;;;20814180;28;20037;-74
2021/09/21 16:54:56;;;;;;;7.13;4.87;;;17.60;99.90;;;;;;20755786;28;20078;-75
2021/09/21 17:04:57;;;;;;;6.37;4.83;;;17.20;99.90;;;;;;20765452;28;20026;-75
2021/09/21 17:14:59;;;;;;;6.70;4.63;;;16.80;99.90;;;;;;20733782;28;20113;-75
2021/09/21 17:25:00;;;;;;;9.13;5.10;;;17.00;99.90;;;;;;20746976;28;20038;-75
2021/09/21 17:35:02;;;;;;;7.27;5.53;;;16.80;99.90;;;;;;20728093;28;20038;-75
2021/09/21 17:45:05;;;;;;;8.90;5.78;;;15.80;99.90;;;;;;20727930;28;20037;-75
2021/09/21 17:55:07;;;;;;;11.45;5.75;;;15.30;99.90;;;;;;20727167;28;20040;-74
2021/09/21 18:05:08;;;;;;;;;;;14.90;99.90;;;;;;20726967;28;20105;-74
2021/09/21 18:15:10;;;;;;;21.25;6.57;;;14.60;99.90;;;;;;20725932;28;20621;-74
2021/09/21 18:25:10;;;;;;;11.53;6.47;;;14.80;99.90;;;;;;20724616;28;20029;-74
2021/09/21 18:35:11;;;;;;;10.93;6.50;;;14.80;99.90;;;;;;20712330;28;20504;-74
2021/09/21 18:45:13;;;;;;;10.37;6.73;;;14.80;99.90;;;;;;20747726;28;20030;-74
2021/09/21 18:55:14;;;;;;;12.40;7.00;;;15.00;99.90;;;;;;20744906;28;20034;-74
2021/09/21 19:05:17;;;;;;;;;;;14.90;99.90;;;;;;20723473;28;20040;-74
2021/09/21 19:15:18;;;;;;;11.63;7.57;;;14.40;99.90;;;;;;20722163;28;19967;-74
2021/09/21 19:25:19;;;;;;;10.13;7.60;;;14.10;99.90;;;;;;20705094;28;20034;-74
2021/09/21 19:35:21;;;;;;;9.90;7.10;;;14.20;99.90;;;;;;20722271;28;20284;-74
2021/09/21 19:45:23;;;;;;;;;;;14.20;99.90;;;;;;20721832;28;20126;-74
2021/09/21 19:55:24;;;;;;;13.02;8.07;;;14.10;99.90;;;;;;20726803;28;19917;-75
2021/09/21 20:05:26;;;;;;;11.73;8.25;;;14.10;99.90;;;;;;20717570;28;20459;-74
2021/09/21 20:15:27;;;;;;;13.90;8.97;;;13.90;99.90;;;;;;20717191;28;20045;-74
2021/09/21 20:25:28;;;;;;;12.13;8.37;;;13.80;99.90;;;;;;20734261;28;20664;-75
2021/09/21 20:35:37;;;;;;;12.00;8.10;;;13.70;99.90;;;;;;20733585;28;20117;-74
2021/09/21 20:45:39;;;;;;;11.68;8.55;;;13.80;99.90;;;;;;20733559;28;20037;-75
2021/09/21 20:55:39;;;;;;;11.53;7.83;;;13.50;99.90;;;;;;20714936;28;20042;-76
2021/09/21 21:05:41;;;;;;;12.53;7.37;;;13.30;99.90;;;;;;20732022;28;20034;-75
2021/09/21 21:15:42;;;;;;;14.97;7.83;;;13.30;99.90;;;;;;20745670;28;20045;-75
2021/09/21 21:25:43;;;;;;;15.77;8.70;;;13.00;99.90;;;;;;20788419;28;20021;-76
2021/09/21 21:35:44;;;;;;;13.57;8.53;;;12.70;99.90;;;;;;20794532;28;20067;-75
2021/09/21 21:45:45;;;;;;;13.00;8.53;;;12.40;99.90;;;;;;20829785;28;20120;-76
2021/09/21 21:55:46;;;;;;;13.60;8.70;;;12.40;99.90;;;;;;20830343;28;20514;-76
2021/09/21 22:05:47;;;;;;;11.53;7.77;;;12.30;99.90;;;;;;20830151;28;20040;-75
2021/09/21 22:15:48;;;;;;;11.40;7.90;;;12.10;99.90;;;;;;20828559;28;20091;-76
2021/09/21 22:25:50;;;;;;;14.00;8.10;;;11.90;99.90;;;;;;20827809;28;20491;-76
2021/09/21 22:35:51;;;;;;;15.73;8.40;;;11.80;99.90;;;;;;20808537;28;20470;-76
2021/09/21 22:45:52;;;;;;;15.43;8.77;;;11.40;99.90;;;;;;20825797;28;20056;-75
2021/09/21 22:55:53;;;;;;;15.43;8.67;;;11.20;99.90;;;;;;20825084;28;20022;-76
2021/09/21 23:05:54;;;;;;;13.73;8.63;;;11.30;99.90;;;;;;20824680;28;20026;-77
2021/09/21 23:15:55;;;;;;;12.83;7.70;;;11.30;99.90;;;;;;20791438;28;20037;-77
2021/09/21 23:25:56;;;;;;;16.70;9.07;;;11.10;99.90;;;;;;20825793;28;20029;-76
2021/09/21 23:35:57;;;;;;;15.77;9.70;;;11.20;99.90;;;;;;20840026;28;20029;-76
2021/09/21 23:45:57;;;;;;;15.70;9.27;;;11.20;99.90;;;;;;20839152;28;20617;-76
2021/09/21 23:55:58;;;;;;;14.37;8.17;;;11.20;99.90;;;;;;20838112;28;20033;-75
